createdAt,value
2023-02-22T00:00:23.859Z,4.31
2023-02-22T00:01:23.861Z,4.38
2023-02-22T00:02:23.855Z,4.31
2023-02-22T00:03:23.866Z,4.34
2023-02-22T00:04:23.804Z,4.24
2023-02-22T00:05:23.780Z,4.21
2023-02-22T00:06:23.774Z,4.18
2023-02-22T00:07:23.832Z,3.93
2023-02-22T00:08:23.757Z,3.92
2023-02-22T00:09:23.780Z,3.75
2023-02-22T00:10:23.730Z,3.84
2023-02-22T00:11:23.718Z,3.98
2023-02-22T00:12:23.728Z,4.18
2023-02-22T00:13:23.731Z,3.99
2023-02-22T00:14:23.691Z,4.21
2023-02-22T00:15:23.687Z,4.20
2023-02-22T00:16:23.777Z,4.18
2023-02-22T00:17:23.653Z,4.29
2023-02-22T00:18:23.642Z,4.24
2023-02-22T00:19:23.659Z,4.25
2023-02-22T00:20:23.634Z,4.39
2023-02-22T00:21:23.608Z,4.43
2023-02-22T00:22:23.609Z,4.34
2023-02-22T00:23:23.594Z,4.38
2023-02-22T00:24:23.683Z,4.31
2023-02-22T00:25:23.636Z,4.26
2023-02-22T00:26:23.615Z,4.32
2023-02-22T00:27:23.544Z,4.31
2023-02-22T00:28:23.564Z,4.31
2023-02-22T00:29:23.520Z,4.34
2023-02-22T00:30:23.523Z,4.32
2023-02-22T00:31:23.549Z,4.32
2023-02-22T00:32:23.533Z,4.34
2023-02-22T00:33:23.486Z,4.17
2023-02-22T00:34:23.468Z,4.29
2023-02-22T00:35:23.459Z,4.18
2023-02-22T00:36:23.447Z,4.29
2023-02-22T00:37:23.431Z,4.21
2023-02-22T00:38:23.529Z,4.35
2023-02-22T00:39:23.410Z,4.26
2023-02-22T00:40:23.413Z,4.34
2023-02-22T00:41:23.430Z,4.36
2023-02-22T00:42:23.381Z,4.35
2023-02-22T00:43:23.371Z,4.29
2023-02-22T00:44:23.393Z,4.25
2023-02-22T00:45:23.361Z,4.21
2023-02-22T00:46:23.340Z,4.24
2023-02-22T00:47:23.348Z,4.17
2023-02-22T00:48:23.317Z,4.25
2023-02-22T00:49:23.304Z,4.21
2023-02-22T00:50:23.306Z,4.38
2023-02-22T00:51:23.282Z,4.20
2023-02-22T00:52:23.274Z,4.25
2023-02-22T00:53:23.319Z,4.17
2023-02-22T00:54:23.251Z,4.28
2023-02-22T00:55:23.247Z,4.20
2023-02-22T00:56:23.255Z,4.18
2023-02-22T00:57:23.218Z,4.34
2023-02-22T00:58:23.209Z,4.21
2023-02-22T00:59:23.281Z,4.31
2023-02-22T01:00:23.215Z,4.18
2023-02-22T01:01:23.195Z,4.16
2023-02-22T01:02:23.210Z,4.31
2023-02-22T01:03:23.154Z,4.32
2023-02-22T01:04:23.144Z,4.39
2023-02-22T01:05:23.171Z,4.34
2023-02-22T01:06:23.124Z,4.39
2023-02-22T01:07:23.109Z,4.42
2023-02-22T01:08:23.112Z,4.32
2023-02-22T01:09:23.086Z,4.36
2023-02-22T01:10:23.076Z,4.31
2023-02-22T01:11:23.089Z,4.34
2023-02-22T01:12:23.057Z,4.50
2023-02-22T01:13:23.068Z,4.29
2023-02-22T01:14:23.047Z,4.38
2023-02-22T01:15:23.021Z,4.32
2023-02-22T01:16:23.247Z,4.35
2023-02-22T01:17:23.022Z,4.24
2023-02-22T01:18:23.002Z,4.31
2023-02-22T01:19:22.977Z,4.25
2023-02-22T01:20:23.116Z,4.34
2023-02-22T01:21:22.970Z,4.44
2023-02-22T01:22:22.954Z,4.50
2023-02-22T01:23:22.956Z,4.43
2023-02-22T01:24:22.932Z,4.44
2023-02-22T01:25:23.025Z,4.53
2023-02-22T01:26:22.938Z,4.36
2023-02-22T01:27:22.889Z,4.46
2023-02-22T01:28:22.882Z,4.38
2023-02-22T01:29:22.910Z,4.46
2023-02-22T01:30:22.917Z,4.49
2023-02-22T01:31:22.869Z,4.51
2023-02-22T01:32:22.915Z,4.44
2023-02-22T01:33:22.824Z,4.53
2023-02-22T01:34:22.815Z,4.65
2023-02-22T01:35:22.887Z,4.53
2023-02-22T01:36:22.798Z,4.59
2023-02-22T01:37:22.788Z,4.53
2023-02-22T01:38:22.774Z,4.49
2023-02-22T01:39:22.760Z,4.59
2023-02-22T01:40:22.752Z,4.44
2023-02-22T01:41:22.795Z,4.42
2023-02-22T01:42:22.759Z,4.18
2023-02-22T01:43:22.712Z,4.13
2023-02-22T01:44:22.707Z,4.02
2023-02-22T01:45:22.696Z,4.18
2023-02-22T01:46:22.728Z,4.36
2023-02-22T01:47:22.722Z,4.21
2023-02-22T01:48:22.684Z,4.13
2023-02-22T01:49:22.646Z,4.06
2023-02-22T01:50:22.638Z,4.07
2023-02-22T01:51:22.623Z,4.02
2023-02-22T01:52:22.619Z,4.08
2023-02-22T01:53:22.643Z,4.07
2023-02-22T01:54:22.594Z,3.98
2023-02-22T01:55:22.585Z,4.02
2023-02-22T01:56:22.577Z,4.10
2023-02-22T01:57:22.561Z,4.14
2023-02-22T01:58:22.554Z,4.32
2023-02-22T01:59:22.594Z,4.35
2023-02-22T02:00:22.527Z,4.20
2023-02-22T02:01:22.517Z,4.31
2023-02-22T02:02:22.506Z,4.43
2023-02-22T02:03:22.494Z,4.26
2023-02-22T02:04:22.520Z,4.08
2023-02-22T02:05:22.519Z,3.90
2023-02-22T02:06:22.465Z,4.06
2023-02-22T02:07:22.448Z,3.99
2023-02-22T02:08:22.450Z,4.06
2023-02-22T02:09:22.440Z,3.98
2023-02-22T02:10:22.419Z,3.88
2023-02-22T02:11:22.415Z,4.00
2023-02-22T02:12:22.421Z,3.92
2023-02-22T02:13:22.389Z,3.90
2023-02-22T02:14:22.378Z,3.93
2023-02-22T02:15:22.366Z,3.93
2023-02-22T02:16:22.356Z,4.07
2023-02-22T02:17:22.351Z,4.18
2023-02-22T02:18:22.364Z,4.24
2023-02-22T02:19:22.334Z,4.25
2023-02-22T02:20:22.334Z,4.21
2023-02-22T02:21:22.300Z,4.24
2023-02-22T02:22:22.294Z,4.25
2023-02-22T02:23:22.306Z,4.24
2023-02-22T02:24:22.309Z,4.29
2023-02-22T02:25:22.256Z,4.28
2023-02-22T02:26:22.250Z,4.32
2023-02-22T02:27:22.232Z,4.35
2023-02-22T02:28:22.230Z,4.34
2023-02-22T02:29:22.232Z,4.25
2023-02-22T02:30:22.263Z,4.31
2023-02-22T02:31:22.224Z,4.34
2023-02-22T02:32:22.280Z,4.39
2023-02-22T02:33:22.178Z,4.39
2023-02-22T02:34:22.268Z,4.32
2023-02-22T02:35:22.148Z,4.31
2023-02-22T02:36:22.166Z,4.25
2023-02-22T02:37:22.133Z,4.21
2023-02-22T02:38:22.164Z,4.35
2023-02-22T02:39:22.105Z,4.42
2023-02-22T02:40:22.355Z,4.39
2023-02-22T02:41:22.084Z,4.34
2023-02-22T02:42:22.106Z,4.24
2023-02-22T02:43:22.059Z,4.42
2023-02-22T02:44:22.056Z,4.46
2023-02-22T02:45:22.043Z,4.39
2023-02-22T02:46:22.052Z,4.46
2023-02-22T02:47:22.069Z,4.31
2023-02-22T02:48:22.033Z,4.31
2023-02-22T02:49:21.995Z,4.28
2023-02-22T02:50:22.005Z,4.34
2023-02-22T02:51:21.976Z,4.24
2023-02-22T02:52:21.990Z,4.24
2023-02-22T02:53:21.954Z,4.18
2023-02-22T02:54:22.003Z,4.17
2023-02-22T02:55:21.933Z,4.11
2023-02-22T02:56:21.930Z,4.35
2023-02-22T02:57:21.916Z,4.43
2023-02-22T02:58:21.901Z,4.18
2023-02-22T02:59:21.889Z,4.36
2023-02-22T03:00:22.014Z,4.13
2023-02-22T03:01:21.881Z,4.07
2023-02-22T03:02:21.860Z,4.06
2023-02-22T03:03:21.844Z,4.08
2023-02-22T03:04:21.837Z,4.25
2023-02-22T03:05:21.822Z,4.18
2023-02-22T03:06:21.872Z,4.17
2023-02-22T03:07:21.823Z,3.96
2023-02-22T03:08:21.813Z,3.95
2023-02-22T03:09:21.784Z,4.10
2023-02-22T03:10:21.776Z,4.14
2023-02-22T03:11:21.758Z,4.31
2023-02-22T03:12:21.810Z,4.17
2023-02-22T03:13:21.740Z,4.24
2023-02-22T03:14:21.729Z,4.16
2023-02-22T03:15:21.725Z,4.32
2023-02-22T03:16:21.763Z,4.21
2023-02-22T03:17:21.695Z,4.14
2023-02-22T03:18:21.737Z,4.13
2023-02-22T03:19:21.672Z,4.20
2023-02-22T03:20:21.664Z,4.26
2023-02-22T03:21:21.660Z,4.31
2023-02-22T03:22:21.642Z,4.08
2023-02-22T03:23:21.654Z,4.20
2023-02-22T03:24:21.653Z,4.11
2023-02-22T03:25:21.611Z,4.14
2023-02-22T03:26:21.597Z,3.93
2023-02-22T03:27:21.593Z,4.10
2023-02-22T03:28:21.601Z,4.02
2023-02-22T03:29:21.578Z,4.04
2023-02-22T03:30:21.659Z,4.07
2023-02-22T03:31:21.571Z,4.08
2023-02-22T03:32:21.589Z,4.07
2023-02-22T03:33:21.524Z,4.10
2023-02-22T03:34:21.514Z,3.86
2023-02-22T03:35:21.505Z,3.90
2023-02-22T03:36:21.537Z,3.96
2023-02-22T03:37:21.482Z,3.92
2023-02-22T03:38:21.465Z,3.99
2023-02-22T03:39:21.460Z,4.06
2023-02-22T03:40:21.483Z,4.10
2023-02-22T03:41:21.439Z,3.95
2023-02-22T03:42:21.492Z,4.06
2023-02-22T03:43:21.417Z,4.13
2023-02-22T03:44:21.401Z,4.14
2023-02-22T03:45:21.400Z,4.13
2023-02-22T03:46:21.422Z,4.13
2023-02-22T03:47:21.374Z,4.17
2023-02-22T03:48:21.374Z,4.21
2023-02-22T03:49:21.383Z,4.24
2023-02-22T03:50:21.345Z,4.06
2023-02-22T03:51:21.811Z,4.31
2023-02-22T03:52:21.319Z,4.21
2023-02-22T03:53:21.316Z,4.20
2023-02-22T03:54:21.298Z,4.16
2023-02-22T03:55:21.293Z,4.08
2023-02-22T03:56:21.303Z,4.08
2023-02-22T03:57:21.279Z,4.07
2023-02-22T03:58:21.254Z,4.24
2023-02-22T03:59:21.245Z,4.25
2023-02-22T04:00:21.239Z,4.20
2023-02-22T04:01:21.222Z,4.20
2023-02-22T04:02:21.206Z,4.11
2023-02-22T04:03:21.330Z,4.11
2023-02-22T04:04:21.266Z,4.07
2023-02-22T04:05:21.182Z,4.24
2023-02-22T04:06:21.174Z,4.29
2023-02-22T04:07:21.158Z,4.07
2023-02-22T04:08:21.143Z,4.21
2023-02-22T04:09:21.139Z,4.21
2023-02-22T04:10:21.166Z,4.29
2023-02-22T04:11:21.115Z,4.26
2023-02-22T04:12:21.131Z,4.11
2023-02-22T04:13:21.112Z,4.07
2023-02-22T04:14:23.159Z,4.13
2023-02-22T04:15:21.092Z,4.28
2023-02-22T04:16:21.131Z,4.36
2023-02-22T04:17:21.119Z,4.06
2023-02-22T04:18:21.130Z,3.96
2023-02-22T04:19:21.030Z,4.00
2023-02-22T04:20:21.012Z,3.96
2023-02-22T04:21:21.004Z,4.02
2023-02-22T04:22:21.004Z,4.11
2023-02-22T04:23:21.003Z,4.17
2023-02-22T04:24:20.967Z,4.21
2023-02-22T04:25:20.961Z,4.28
2023-02-22T04:26:20.951Z,4.00
2023-02-22T04:27:20.949Z,4.13
2023-02-22T04:28:20.953Z,4.14
2023-02-22T04:29:20.927Z,4.26
2023-02-22T04:30:20.965Z,4.28
2023-02-22T04:31:21.060Z,4.25
2023-02-22T04:32:20.904Z,4.32
2023-02-22T04:33:20.883Z,4.42
2023-02-22T04:34:20.909Z,4.31
2023-02-22T04:35:20.860Z,4.47
2023-02-22T04:36:20.836Z,4.35
2023-02-22T04:37:20.830Z,4.28
2023-02-22T04:38:20.816Z,4.46
2023-02-22T04:39:20.825Z,4.35
2023-02-22T04:40:20.843Z,4.49
2023-02-22T04:41:20.783Z,4.42
2023-02-22T04:42:20.771Z,4.53
2023-02-22T04:43:20.776Z,4.39
2023-02-22T04:44:20.773Z,4.44
2023-02-22T04:45:20.742Z,4.47
2023-02-22T04:46:20.839Z,4.31
2023-02-22T04:47:20.719Z,4.31
2023-02-22T04:48:20.705Z,4.43
2023-02-22T04:49:20.708Z,4.38
2023-02-22T04:50:20.688Z,4.56
2023-02-22T04:51:20.674Z,4.56
2023-02-22T04:52:20.708Z,4.64
2023-02-22T04:53:20.652Z,4.50
2023-02-22T04:54:20.657Z,4.53
2023-02-22T04:55:20.634Z,4.49
2023-02-22T04:56:20.616Z,4.57
2023-02-22T04:57:20.612Z,4.54
2023-02-22T04:58:20.617Z,4.51
2023-02-22T04:59:20.606Z,4.50
2023-02-22T05:00:20.608Z,4.43
2023-02-22T05:01:20.599Z,4.53
2023-02-22T05:02:20.603Z,4.51
2023-02-22T05:03:20.542Z,4.59
2023-02-22T05:04:20.593Z,4.57
2023-02-22T05:05:20.524Z,4.62
2023-02-22T05:06:20.520Z,4.59
2023-02-22T05:07:20.501Z,4.53
2023-02-22T05:08:20.488Z,4.59
2023-02-22T05:09:20.490Z,4.50
2023-02-22T05:10:20.494Z,4.51
2023-02-22T05:11:20.471Z,4.39
2023-02-22T05:12:20.446Z,4.32
2023-02-22T05:13:20.434Z,4.31
2023-02-22T05:14:20.429Z,4.13
2023-02-22T05:15:20.413Z,4.14
2023-02-22T05:16:20.463Z,4.24
2023-02-22T05:17:20.402Z,4.10
2023-02-22T05:18:20.391Z,4.28
2023-02-22T05:19:20.372Z,4.26
2023-02-22T05:20:20.356Z,4.32
2023-02-22T05:21:20.352Z,4.44
2023-02-22T05:22:20.394Z,4.34
2023-02-22T05:23:20.337Z,4.34
2023-02-22T05:24:20.316Z,4.34
2023-02-22T05:25:20.310Z,4.26
2023-02-22T05:26:20.295Z,4.31
2023-02-22T05:27:20.296Z,4.24
2023-02-22T05:28:20.309Z,4.24
2023-02-22T05:29:20.269Z,4.13
2023-02-22T05:30:20.269Z,4.08
2023-02-22T05:31:20.594Z,4.11
2023-02-22T05:32:20.305Z,4.20
2023-02-22T05:33:20.217Z,4.20
2023-02-22T05:34:20.229Z,4.20
2023-02-22T05:35:20.212Z,3.95
2023-02-22T05:36:20.184Z,3.99
2023-02-22T05:37:20.180Z,3.96
2023-02-22T05:38:20.159Z,4.06
2023-02-22T05:39:20.178Z,4.14
2023-02-22T05:40:20.163Z,4.06
2023-02-22T05:41:20.142Z,4.24
2023-02-22T05:42:20.115Z,4.14
2023-02-22T05:43:20.115Z,4.21
2023-02-22T05:44:20.102Z,4.18
2023-02-22T05:45:20.088Z,4.16
2023-02-22T05:46:20.175Z,4.13
2023-02-22T05:47:20.067Z,4.00
2023-02-22T05:48:22.311Z,3.92
2023-02-22T05:49:20.066Z,4.16
2023-02-22T05:50:20.041Z,4.04
2023-02-22T05:51:20.025Z,4.04
2023-02-22T05:52:20.061Z,4.10
2023-02-22T05:53:20.022Z,4.13
2023-02-22T05:54:19.990Z,3.99
2023-02-22T05:55:19.985Z,4.07
2023-02-22T05:56:19.965Z,4.06
2023-02-22T05:57:19.954Z,4.17
2023-02-22T05:58:20.088Z,3.96
2023-02-22T05:59:19.937Z,3.95
2023-02-22T06:00:19.920Z,3.92
2023-02-22T06:01:20.194Z,4.06
2023-02-22T06:02:19.899Z,4.16
2023-02-22T06:03:19.892Z,4.13
2023-02-22T06:04:19.931Z,4.04
2023-02-22T06:05:19.896Z,4.14
2023-02-22T06:06:22.077Z,4.02
2023-02-22T06:07:19.845Z,4.10
2023-02-22T06:08:19.833Z,4.16
2023-02-22T06:09:19.834Z,4.20
2023-02-22T06:10:19.843Z,4.26
2023-02-22T06:11:20.171Z,4.24
2023-02-22T06:12:19.788Z,4.20
2023-02-22T06:13:19.800Z,4.17
2023-02-22T06:14:19.765Z,4.25
2023-02-22T06:15:19.770Z,4.14
2023-02-22T06:16:19.808Z,4.11
2023-02-22T06:17:20.638Z,4.17
2023-02-22T06:18:19.721Z,3.89
2023-02-22T06:19:19.785Z,4.08
2023-02-22T06:20:19.718Z,3.99
2023-02-22T06:21:19.899Z,4.10
2023-02-22T06:22:19.748Z,4.17
2023-02-22T06:23:19.675Z,4.02
2023-02-22T06:24:19.657Z,4.17
2023-02-22T06:25:19.677Z,4.11
2023-02-22T06:26:19.641Z,4.11
2023-02-22T06:27:19.633Z,4.13
2023-02-22T06:28:27.152Z,4.17
2023-02-22T06:29:19.606Z,4.17
2023-02-22T06:30:19.662Z,4.26
2023-02-22T06:31:19.991Z,4.18
2023-02-22T06:32:27.161Z,4.31
2023-02-22T06:33:19.562Z,4.36
2023-02-22T06:34:19.562Z,4.34
2023-02-22T06:35:19.539Z,4.34
2023-02-22T06:36:19.546Z,4.47
2023-02-22T06:37:19.525Z,4.51
2023-02-22T06:38:19.508Z,4.47
2023-02-22T06:39:19.505Z,4.42
2023-02-22T06:40:19.494Z,4.39
2023-02-22T06:41:27.295Z,4.32
2023-02-22T06:42:19.605Z,4.21
2023-02-22T06:43:19.453Z,4.32
2023-02-22T06:44:19.439Z,4.21
2023-02-22T06:45:19.438Z,4.34
2023-02-22T06:46:19.434Z,4.43
2023-02-22T06:47:19.410Z,4.46
2023-02-22T06:48:19.444Z,4.54
2023-02-22T06:49:19.438Z,4.69
2023-02-22T06:50:19.381Z,4.74
2023-02-22T06:51:19.431Z,4.59
2023-02-22T06:52:19.401Z,4.75
2023-02-22T06:53:19.353Z,4.84
2023-02-22T06:54:19.334Z,4.94
2023-02-22T06:55:19.348Z,4.87
2023-02-22T06:56:19.310Z,4.97
2023-02-22T06:57:19.319Z,4.79
2023-02-22T06:58:19.287Z,4.96
2023-02-22T06:59:19.287Z,4.75
2023-02-22T07:00:19.265Z,4.77
2023-02-22T07:01:19.671Z,4.94
2023-02-22T07:02:19.243Z,4.84
2023-02-22T07:03:19.289Z,4.84
2023-02-22T07:04:19.230Z,4.94
2023-02-22T07:05:19.215Z,4.91
2023-02-22T07:06:19.199Z,4.96
2023-02-22T07:07:19.260Z,4.99
2023-02-22T07:08:19.199Z,5.05
2023-02-22T07:09:19.219Z,5.23
2023-02-22T07:10:19.169Z,5.04
2023-02-22T07:11:19.408Z,5.24
2023-02-22T07:12:19.135Z,5.08
2023-02-22T07:13:19.130Z,5.24
2023-02-22T07:14:19.124Z,5.14
2023-02-22T07:15:19.144Z,5.15
2023-02-22T07:16:19.161Z,5.01
2023-02-22T07:17:19.088Z,5.23
2023-02-22T07:18:19.071Z,5.23
2023-02-22T07:19:19.065Z,5.23
2023-02-22T07:20:19.051Z,5.30
2023-02-22T07:21:19.278Z,5.37
2023-02-22T07:22:19.028Z,5.48
2023-02-22T07:23:19.016Z,5.38
2023-02-22T07:24:19.026Z,5.59
2023-02-22T07:25:18.997Z,5.59
2023-02-22T07:26:18.984Z,5.77
2023-02-22T07:27:19.006Z,5.90
2023-02-22T07:28:18.983Z,5.75
2023-02-22T07:29:18.956Z,5.67
2023-02-22T07:30:18.967Z,5.66
2023-02-22T07:31:18.961Z,5.87
2023-02-22T07:32:19.086Z,5.96
2023-02-22T07:33:18.941Z,5.95
2023-02-22T07:34:18.898Z,5.85
2023-02-22T07:35:18.887Z,5.81
2023-02-22T07:36:18.880Z,5.70
2023-02-22T07:37:18.864Z,5.67
2023-02-22T07:38:18.870Z,5.83
2023-02-22T07:39:18.884Z,5.77
2023-02-22T07:40:18.854Z,5.78
2023-02-22T07:41:19.253Z,5.77
2023-02-22T07:42:18.814Z,5.69
2023-02-22T07:43:18.808Z,5.95
2023-02-22T07:44:18.802Z,6.03
2023-02-22T07:45:18.795Z,6.06
2023-02-22T07:46:18.781Z,6.06
2023-02-22T07:47:18.753Z,6.30
2023-02-22T07:48:18.757Z,6.14
2023-02-22T07:49:18.733Z,6.25
2023-02-22T07:50:18.735Z,6.28
2023-02-22T07:51:18.969Z,6.30
2023-02-22T07:52:18.702Z,6.16
2023-02-22T07:53:18.736Z,6.27
2023-02-22T07:54:18.682Z,6.21
2023-02-22T07:55:18.679Z,6.21
2023-02-22T07:56:18.702Z,6.32
2023-02-22T07:57:18.677Z,6.24
2023-02-22T07:58:18.636Z,6.13
2023-02-22T07:59:18.628Z,6.35
2023-02-22T08:00:18.616Z,6.82
2023-02-22T08:01:18.964Z,6.87
2023-02-22T08:02:18.769Z,7.05
2023-02-22T08:03:18.657Z,6.91
2023-02-22T08:04:18.575Z,6.99
2023-02-22T08:05:18.562Z,6.93
2023-02-22T08:06:18.565Z,6.91
2023-02-22T08:07:18.536Z,6.79
2023-02-22T08:08:19.920Z,7.18
2023-02-22T08:09:18.543Z,7.73
2023-02-22T08:10:18.509Z,7.88
2023-02-22T08:11:18.840Z,7.69
2023-02-22T08:12:18.515Z,7.51
2023-02-22T08:13:18.481Z,7.73
2023-02-22T08:14:18.460Z,8.64
2023-02-22T08:15:18.474Z,8.67
2023-02-22T08:16:18.440Z,8.25
2023-02-22T08:17:18.499Z,8.27
2023-02-22T08:18:18.420Z,7.91
2023-02-22T08:19:18.415Z,7.96
2023-02-22T08:20:18.414Z,7.86
2023-02-22T08:21:18.801Z,7.69
2023-02-22T08:22:19.320Z,7.85
2023-02-22T08:23:18.418Z,7.86
2023-02-22T08:24:18.360Z,7.77
2023-02-22T08:25:18.338Z,7.70
2023-02-22T08:26:18.364Z,7.77
2023-02-22T08:27:18.317Z,7.94
2023-02-22T08:28:18.326Z,7.96
2023-02-22T08:29:18.317Z,7.81
2023-02-22T08:30:18.336Z,7.88
2023-02-22T08:31:18.697Z,7.71
2023-02-22T08:32:18.477Z,8.12
2023-02-22T08:33:18.411Z,8.20
2023-02-22T08:34:18.244Z,7.95
2023-02-22T08:35:18.239Z,7.89
2023-02-22T08:36:18.222Z,8.12
2023-02-22T08:37:18.205Z,8.21
2023-02-22T08:38:18.249Z,7.94
2023-02-22T08:39:18.185Z,7.95
2023-02-22T08:40:18.179Z,7.88
2023-02-22T08:41:18.478Z,7.88
2023-02-22T08:42:18.156Z,7.85
2023-02-22T08:43:18.152Z,7.88
2023-02-22T08:44:18.181Z,7.89
2023-02-22T08:45:18.122Z,8.13
2023-02-22T08:46:18.126Z,8.29
2023-02-22T08:47:18.094Z,8.29
2023-02-22T08:48:18.119Z,8.58
2023-02-22T08:49:18.070Z,8.49
2023-02-22T08:50:18.081Z,8.58
2023-02-22T08:51:18.401Z,8.75
2023-02-22T08:52:18.050Z,9.16
2023-02-22T08:53:18.022Z,9.55
2023-02-22T08:54:18.026Z,9.24
2023-02-22T08:55:18.055Z,9.10
2023-02-22T08:56:18.063Z,8.98
2023-02-22T08:57:19.617Z,8.85
2023-02-22T08:58:18.744Z,8.86
2023-02-22T08:59:19.016Z,8.68
2023-02-22T09:00:18.028Z,8.78
2023-02-22T09:01:27.979Z,8.55
2023-02-22T09:02:18.992Z,8.46
2023-02-22T09:03:17.982Z,8.47
2023-02-22T09:04:17.906Z,8.47
2023-02-22T09:05:17.912Z,8.60
2023-02-22T09:06:17.914Z,8.52
2023-02-22T09:07:17.914Z,8.54
2023-02-22T09:08:17.993Z,8.67
2023-02-22T09:09:17.850Z,9.00
2023-02-22T09:10:17.891Z,9.40
2023-02-22T09:11:19.020Z,9.40
2023-02-22T09:12:17.818Z,9.15
2023-02-22T09:13:17.810Z,9.15
2023-02-22T09:14:17.832Z,9.12
2023-02-22T09:15:17.784Z,8.80
2023-02-22T09:16:17.883Z,8.79
2023-02-22T09:17:17.763Z,8.94
2023-02-22T09:18:17.761Z,9.26
2023-02-22T09:19:17.741Z,9.53
2023-02-22T09:20:17.777Z,9.95
2023-02-22T09:21:18.044Z,10.09
2023-02-22T09:22:17.708Z,9.52
2023-02-22T09:23:17.708Z,9.58
2023-02-22T09:24:17.694Z,9.58
2023-02-22T09:25:17.972Z,9.86
2023-02-22T09:26:17.739Z,9.98
2023-02-22T09:27:17.654Z,10.28
2023-02-22T09:28:17.645Z,9.99
2023-02-22T09:29:17.645Z,9.67
2023-02-22T09:30:17.663Z,9.65
2023-02-22T09:31:18.133Z,9.91
2023-02-22T09:32:17.889Z,9.75
2023-02-22T09:33:17.759Z,9.59
2023-02-22T09:34:17.580Z,9.85
2023-02-22T09:35:17.569Z,10.10
2023-02-22T09:36:17.993Z,10.16
2023-02-22T09:37:17.552Z,9.99
2023-02-22T09:38:17.587Z,9.95
2023-02-22T09:39:17.526Z,9.96
2023-02-22T09:40:17.522Z,9.85
2023-02-22T09:41:17.766Z,9.77
2023-02-22T09:42:17.497Z,9.78
2023-02-22T09:43:17.479Z,10.07
2023-02-22T09:44:17.499Z,10.04
2023-02-22T09:45:17.457Z,10.22
2023-02-22T09:46:17.913Z,10.24
2023-02-22T09:47:17.458Z,10.26
2023-02-22T09:48:21.986Z,10.47
2023-02-22T09:49:18.499Z,10.68
2023-02-22T09:50:17.435Z,10.86
2023-02-22T09:51:17.863Z,11.33
2023-02-22T09:52:17.388Z,11.53
2023-02-22T09:53:17.383Z,11.49
2023-02-22T09:54:17.374Z,11.94
2023-02-22T09:55:17.350Z,11.87
2023-02-22T09:56:17.853Z,11.98
2023-02-22T09:57:17.329Z,12.49
2023-02-22T09:58:17.330Z,11.87
2023-02-22T09:59:17.303Z,11.64
2023-02-22T10:00:17.297Z,11.78
2023-02-22T10:01:17.296Z,12.46
2023-02-22T10:02:17.274Z,12.01
2023-02-22T10:03:17.327Z,12.01
2023-02-22T10:04:17.455Z,11.88
2023-02-22T10:05:17.307Z,11.84
2023-02-22T10:06:17.587Z,11.70
2023-02-22T10:07:17.231Z,12.15
2023-02-22T10:08:17.208Z,12.74
2023-02-22T10:09:17.193Z,12.59
2023-02-22T10:10:17.205Z,12.96
2023-02-22T10:11:17.171Z,13.04
2023-02-22T10:12:17.266Z,13.35
2023-02-22T10:13:17.167Z,13.29
2023-02-22T10:14:17.141Z,12.98
2023-02-22T10:15:17.126Z,13.01
2023-02-22T10:16:17.515Z,12.94
2023-02-22T10:17:17.112Z,12.31
2023-02-22T10:18:17.117Z,12.36
2023-02-22T10:19:17.110Z,12.59
2023-02-22T10:20:17.118Z,13.12
2023-02-22T10:21:17.062Z,13.27
2023-02-22T10:22:17.056Z,13.14
2023-02-22T10:23:17.040Z,12.96
2023-02-22T10:24:17.052Z,12.71
2023-02-22T10:25:17.033Z,12.99
2023-02-22T10:26:17.439Z,13.21
2023-02-22T10:27:16.996Z,13.36
2023-02-22T10:28:17.007Z,13.48
2023-02-22T10:29:16.990Z,13.22
2023-02-22T10:30:24.638Z,13.43
2023-02-22T10:31:18.079Z,13.31
2023-02-22T10:32:17.105Z,13.01
2023-02-22T10:33:16.936Z,13.22
2023-02-22T10:34:16.941Z,13.19
2023-02-22T10:35:16.917Z,13.14
2023-02-22T10:36:17.403Z,13.21
2023-02-22T10:37:16.985Z,13.46
2023-02-22T10:38:16.889Z,13.43
2023-02-22T10:39:16.920Z,13.54
2023-02-22T10:40:16.889Z,13.76
2023-02-22T10:41:17.601Z,13.54
2023-02-22T10:42:16.840Z,14.09
2023-02-22T10:43:16.865Z,13.66
2023-02-22T10:44:16.818Z,13.87
2023-02-22T10:45:16.816Z,13.99
2023-02-22T10:46:17.283Z,14.59
2023-02-22T10:47:18.141Z,14.54
2023-02-22T10:48:16.774Z,14.26
2023-02-22T10:49:16.784Z,13.65
2023-02-22T10:50:16.766Z,13.55
2023-02-22T10:51:16.743Z,13.14
2023-02-22T10:52:16.800Z,13.32
2023-02-22T10:53:16.727Z,13.87
2023-02-22T10:54:16.708Z,13.87
2023-02-22T10:55:16.714Z,13.66
2023-02-22T10:56:17.121Z,13.47
2023-02-22T10:57:16.672Z,13.61
2023-02-22T10:58:16.677Z,13.98
2023-02-22T10:59:16.654Z,13.96
2023-02-22T11:00:16.647Z,14.24
2023-02-22T11:01:17.006Z,14.42
2023-02-22T11:02:16.732Z,14.26
2023-02-22T11:03:16.613Z,14.24
2023-02-22T11:04:16.634Z,13.83
2023-02-22T11:05:16.661Z,13.75
2023-02-22T11:06:16.924Z,13.88
2023-02-22T11:07:16.585Z,13.31
2023-02-22T11:08:16.626Z,13.43
2023-02-22T11:09:16.539Z,13.55
2023-02-22T11:10:16.606Z,13.46
2023-02-22T11:11:16.958Z,13.03
2023-02-22T11:12:16.515Z,12.98
2023-02-22T11:13:16.509Z,13.09
2023-02-22T11:14:16.485Z,13.24
2023-02-22T11:15:16.489Z,13.36
2023-02-22T11:16:16.498Z,13.36
2023-02-22T11:17:16.464Z,13.07
2023-02-22T11:18:16.442Z,13.13
2023-02-22T11:19:16.442Z,13.31
2023-02-22T11:20:16.475Z,13.46
2023-02-22T11:21:16.686Z,13.32
2023-02-22T11:22:16.398Z,13.43
2023-02-22T11:23:16.451Z,13.73
2023-02-22T11:24:49.498Z,14.04
2023-02-22T11:25:48.513Z,13.98
2023-02-22T11:26:48.503Z,13.98
2023-02-22T11:27:48.500Z,13.94
2023-02-22T11:28:48.488Z,13.86
2023-02-22T11:29:48.470Z,14.05
2023-02-22T11:30:48.550Z,14.31
2023-02-22T11:31:48.611Z,14.63
2023-02-22T11:32:48.463Z,15.19
2023-02-22T11:33:48.467Z,15.00
2023-02-22T11:34:50.794Z,14.91
2023-02-22T11:35:48.407Z,14.59
2023-02-22T11:36:48.394Z,14.90
2023-02-22T11:37:48.383Z,14.42
2023-02-22T11:38:48.385Z,14.17
2023-02-22T11:39:48.444Z,14.34
2023-02-22T11:40:48.437Z,14.74
2023-02-22T11:41:48.344Z,14.66
2023-02-22T11:42:48.337Z,14.26
2023-02-22T11:43:48.317Z,14.19
2023-02-22T11:44:48.316Z,14.31
2023-02-22T11:45:57.803Z,14.45
2023-02-22T11:46:49.357Z,14.52
2023-02-22T11:47:48.279Z,14.49
2023-02-22T11:48:48.264Z,13.91
2023-02-22T11:49:48.248Z,13.73
2023-02-22T11:50:48.238Z,13.65
2023-02-22T11:51:48.252Z,13.79
2023-02-22T11:52:48.215Z,13.65
2023-02-22T11:53:48.206Z,13.61
2023-02-22T11:54:48.192Z,13.55
2023-02-22T11:55:48.183Z,13.63
2023-02-22T11:56:48.257Z,13.86
2023-02-22T11:57:48.195Z,13.83
2023-02-22T11:58:48.152Z,13.91
2023-02-22T11:59:48.148Z,14.21
2023-02-22T12:00:48.127Z,14.16
2023-02-22T12:01:48.127Z,13.73
2023-02-22T12:02:56.611Z,13.29
2023-02-22T12:03:49.156Z,13.09
2023-02-22T12:04:48.203Z,13.10
2023-02-22T12:05:48.085Z,12.98
2023-02-22T12:06:48.085Z,13.14
2023-02-22T12:07:48.052Z,13.36
2023-02-22T12:08:48.054Z,13.51
2023-02-22T12:09:48.053Z,13.79
2023-02-22T12:10:48.016Z,13.59
2023-02-22T12:11:48.019Z,13.39
2023-02-22T12:12:48.019Z,13.48
2023-02-22T12:13:48.014Z,13.12
2023-02-22T12:14:47.986Z,13.10
2023-02-22T12:15:48.040Z,12.98
2023-02-22T12:16:48.005Z,12.98
2023-02-22T12:17:58.085Z,12.95
2023-02-22T12:18:48.982Z,12.91
2023-02-22T12:19:48.090Z,12.81
2023-02-22T12:20:47.962Z,12.80
2023-02-22T12:21:47.974Z,12.94
2023-02-22T12:22:48.729Z,12.80
2023-02-22T12:23:47.935Z,12.99
2023-02-22T12:24:48.899Z,13.39
2023-02-22T12:25:47.922Z,13.68
2023-02-22T12:26:47.909Z,14.12
2023-02-22T12:27:47.919Z,14.20
2023-02-22T12:28:48.995Z,13.98
2023-02-22T12:29:47.876Z,13.47
2023-02-22T12:30:48.993Z,13.71
2023-02-22T12:31:48.810Z,13.57
2023-02-22T12:32:47.894Z,13.54
2023-02-22T12:33:48.772Z,13.75
2023-02-22T12:34:47.816Z,14.17
2023-02-22T12:35:47.810Z,14.53
2023-02-22T12:36:48.807Z,14.57
2023-02-22T12:37:47.784Z,14.63
2023-02-22T12:38:47.799Z,14.63
2023-02-22T12:39:53.637Z,15.09
2023-02-22T12:40:48.712Z,14.94
2023-02-22T12:41:47.690Z,15.07
2023-02-22T12:42:47.696Z,14.97
2023-02-22T12:43:47.679Z,15.07
2023-02-22T12:44:47.679Z,15.01
2023-02-22T12:45:47.667Z,15.23
2023-02-22T12:46:47.646Z,15.40
2023-02-22T12:47:47.620Z,15.12
2023-02-22T12:48:47.614Z,15.01
2023-02-22T12:49:47.599Z,14.78
2023-02-22T12:50:47.594Z,14.91
2023-02-22T12:51:47.589Z,14.64
2023-02-22T12:52:47.579Z,15.05
2023-02-22T12:53:47.604Z,14.71
2023-02-22T12:54:47.546Z,14.91
2023-02-22T12:55:47.533Z,14.85
2023-02-22T12:56:47.525Z,14.83
2023-02-22T12:57:47.540Z,14.45
2023-02-22T12:58:47.509Z,14.67
2023-02-22T12:59:47.490Z,14.39
2023-02-22T13:00:47.501Z,14.38
2023-02-22T13:01:47.528Z,14.48
2023-02-22T13:02:47.459Z,14.49
2023-02-22T13:03:47.472Z,14.52
2023-02-22T13:04:47.450Z,14.41
2023-02-22T13:05:47.423Z,14.56
2023-02-22T13:06:47.416Z,14.59
2023-02-22T13:07:47.398Z,14.74
2023-02-22T13:08:47.392Z,14.69
2023-02-22T13:09:47.417Z,15.04
2023-02-22T13:10:47.369Z,15.05
2023-02-22T13:11:47.355Z,14.93